Stacja Pogody
Warszawa Praga-Północ

Szerokość 52°15'43"N Długość 21°01'22"E Wysokość 110m n.p.m.


289 dzień roku.   Do końca pozostalo 76 dni.   Od wczoraj ubyło 4 min. i 2 sek. dnia.
Wschód Słońca 07:02 Górowanie Słońca 12:21 Zachód Słońca 17:41 waga
Data juliańska 2458408.903 Odległość Słońca 149068699 km Średn. kątowa Słońca 0,321°
Wschód Księżyca 14:23 Zachód Księżyca 22:43 Wiek Księżyca 7 dni Moon
Widoczność Księżyca 45,44% Odległość Księżyca 404243 km Średn. kątowa Księżyca 0,296°
Dzień krótszy od najdłuższego o: 06:08 Długość dnia 10:39 Imieniny Gawła, Ambrożego



  Aktualizacja: 16-10-2018 09:39:16
TEMPERATURA
Aktualnie: 12.0°C ↑↑
Temperatura odczuwalna:12.0°C
Punkt rosy6.7°C
WIATR
Średnia prędkość: 0.0km/h ↓
Prędkość w podmuchach:1.1km/h
Przepływ w ciągu doby:76.8km
Kierunek wiatru:360°
CIŚNIENIE
Względne:1023.3hPa
Trend ciśnienia:powolny wzrost
WILGOTNOŚĆ
Wilgotność względna: 70% ↓
Podstawa chmur2461m
DESZCZ
W ostatniej godzinie: 0.0mm
Dzisiaj:0.0mm
W tym miesiącu:1.2mm
METAR
EPWA 160700Z 15003KT 120V180 CAVOK 10/06 Q1022 NOSIG
Ostrzeżenia burzowe
Prognoza 12-to godzinna (prawdopodobieństwo 75%):   Dobra pogoda prognoza





a  a